createdAt,value
2022-08-31T00:00:25.668Z,3.08
2022-08-31T00:03:11.365Z,3.05
2022-08-31T00:05:39.548Z,2.72
2022-08-31T00:08:08.199Z,2.67
2022-08-31T00:10:37.195Z,2.85
2022-08-31T00:13:06.943Z,2.72
2022-08-31T00:15:36.753Z,2.95
2022-08-31T00:18:05.230Z,3.30
2022-08-31T00:20:34.786Z,2.88
2022-08-31T00:23:03.533Z,2.65
2022-08-31T00:25:33.669Z,2.70
2022-08-31T00:28:01.512Z,3.22
2022-08-31T00:30:30.508Z,2.97
2022-08-31T00:33:00.248Z,2.80
2022-08-31T00:35:29.284Z,3.03
2022-08-31T00:37:57.664Z,3.10
2022-08-31T00:40:26.657Z,2.88
2022-08-31T00:42:55.618Z,2.80
2022-08-31T00:45:24.431Z,3.00
2022-08-31T00:47:53.151Z,2.65
2022-08-31T00:50:25.460Z,3.03
2022-08-31T00:52:57.018Z,3.42
2022-08-31T00:55:31.079Z,3.03
2022-08-31T00:58:02.311Z,3.72
2022-08-31T01:00:30.709Z,3.88
2022-08-31T01:03:01.691Z,4.18
2022-08-31T01:05:31.535Z,4.72
2022-08-31T01:08:01.296Z,4.20
2022-08-31T01:10:33.079Z,4.05
2022-08-31T01:13:01.456Z,4.90
2022-08-31T01:15:31.334Z,4.68
2022-08-31T01:18:02.590Z,4.00
2022-08-31T01:20:38.459Z,4.93
2022-08-31T01:23:18.400Z,4.47
2022-08-31T01:25:49.952Z,4.53
2022-08-31T01:28:18.208Z,4.68
2022-08-31T01:30:59.957Z,4.40
2022-08-31T01:33:28.422Z,5.05
2022-08-31T01:35:57.481Z,5.05
2022-08-31T01:38:27.425Z,5.07
2022-08-31T01:40:58.355Z,4.75
2022-08-31T01:43:26.588Z,4.95
2022-08-31T01:45:55.290Z,4.97
2022-08-31T01:48:23.957Z,5.43
2022-08-31T01:50:52.700Z,5.45
2022-08-31T01:53:20.610Z,5.72
2022-08-31T01:55:49.995Z,5.43
2022-08-31T01:58:18.128Z,4.70
2022-08-31T02:01:10.369Z,4.28
2022-08-31T02:03:54.231Z,4.70
2022-08-31T02:06:26.101Z,4.47
2022-08-31T02:08:54.078Z,4.97
2022-08-31T02:11:23.362Z,4.93
2022-08-31T02:13:52.089Z,4.78
2022-08-31T02:16:20.267Z,5.00
2022-08-31T02:18:48.294Z,5.35
2022-08-31T02:21:16.364Z,4.80
2022-08-31T02:23:44.324Z,5.60
2022-08-31T02:26:12.815Z,4.75
2022-08-31T02:28:42.270Z,4.95
2022-08-31T02:31:11.803Z,4.65
2022-08-31T02:33:47.406Z,4.80
2022-08-31T02:36:15.357Z,4.80
2022-08-31T02:38:43.351Z,4.90
2022-08-31T02:41:11.497Z,4.78
2022-08-31T02:43:43.182Z,5.53
2022-08-31T02:46:11.764Z,5.22
2022-08-31T02:48:48.056Z,5.60
2022-08-31T02:51:19.816Z,4.75
2022-08-31T02:53:48.571Z,4.47
2022-08-31T02:56:16.557Z,5.22
2022-08-31T02:58:45.738Z,4.32
2022-08-31T03:01:13.987Z,4.55
2022-08-31T03:03:46.462Z,4.32
2022-08-31T03:06:16.820Z,4.25
2022-08-31T03:08:44.696Z,5.07
2022-08-31T03:11:13.481Z,4.35
2022-08-31T03:13:43.249Z,4.70
2022-08-31T03:16:14.475Z,4.70
2022-08-31T03:18:43.450Z,4.35
2022-08-31T03:21:11.402Z,4.38
2022-08-31T03:23:39.546Z,4.45
2022-08-31T03:26:08.209Z,4.72
2022-08-31T03:28:38.616Z,4.63
2022-08-31T03:31:27.921Z,4.75
2022-08-31T03:33:57.577Z,4.50
2022-08-31T03:36:25.822Z,4.60
2022-08-31T03:38:53.711Z,4.43
2022-08-31T03:41:24.690Z,5.18
2022-08-31T03:43:53.386Z,5.22
2022-08-31T03:46:21.488Z,4.75
2022-08-31T03:48:51.234Z,4.72
2022-08-31T03:51:20.225Z,4.32
2022-08-31T03:53:48.471Z,5.28
2022-08-31T03:56:20.130Z,5.10
2022-08-31T03:58:50.407Z,5.38
2022-08-31T04:01:42.934Z,4.88
2022-08-31T04:04:30.581Z,5.05
2022-08-31T04:07:30.588Z,4.88
2022-08-31T04:10:30.788Z,5.10
2022-08-31T04:13:17.690Z,5.00
2022-08-31T04:16:13.097Z,5.25
2022-08-31T04:18:56.251Z,4.97
2022-08-31T04:21:27.439Z,5.10
2022-08-31T04:23:56.042Z,4.93
2022-08-31T04:26:27.338Z,4.95
2022-08-31T04:28:55.819Z,4.93
2022-08-31T04:31:25.172Z,5.20
2022-08-31T04:33:53.682Z,6.28
2022-08-31T04:36:24.426Z,5.93
2022-08-31T04:38:58.092Z,5.18
2022-08-31T04:41:28.400Z,5.72
2022-08-31T04:43:58.695Z,4.82
2022-08-31T04:46:28.436Z,4.95
2022-08-31T04:48:56.753Z,5.78
2022-08-31T04:51:26.743Z,5.88
2022-08-31T04:53:56.754Z,5.40
2022-08-31T04:56:27.374Z,6.03
2022-08-31T04:58:59.536Z,5.35
2022-08-31T05:01:36.138Z,5.85
2022-08-31T05:04:39.407Z,5.55
2022-08-31T05:07:07.593Z,5.97
2022-08-31T05:09:38.490Z,4.97
2022-08-31T05:12:06.701Z,5.43
2022-08-31T05:14:35.885Z,5.30
2022-08-31T05:17:13.763Z,5.43
2022-08-31T05:19:43.705Z,5.45
2022-08-31T05:22:15.457Z,5.15
2022-08-31T05:24:48.055Z,5.22
2022-08-31T05:27:16.160Z,5.40
2022-08-31T05:29:45.366Z,5.40
2022-08-31T05:32:41.373Z,4.95
2022-08-31T05:35:11.504Z,5.93
2022-08-31T05:37:41.357Z,5.95
2022-08-31T05:40:12.914Z,5.15
2022-08-31T05:42:40.725Z,5.38
2022-08-31T05:45:09.556Z,5.70
2022-08-31T05:47:38.298Z,5.38
2022-08-31T05:50:08.256Z,5.38
2022-08-31T05:52:37.917Z,5.47
2022-08-31T05:55:06.467Z,5.63
2022-08-31T05:57:36.988Z,5.80
2022-08-31T06:00:06.156Z,5.45
2022-08-31T06:02:41.842Z,5.55
2022-08-31T06:05:12.521Z,6.13
2022-08-31T06:07:40.519Z,5.20
2022-08-31T06:10:11.900Z,5.22
2022-08-31T06:12:44.157Z,5.25
2022-08-31T06:15:13.138Z,5.25
2022-08-31T06:17:40.942Z,5.53
2022-08-31T06:20:14.268Z,4.90
2022-08-31T06:22:46.752Z,5.05
2022-08-31T06:25:24.426Z,4.93
2022-08-31T06:27:55.084Z,5.07
2022-08-31T06:30:27.136Z,5.35
2022-08-31T06:32:58.513Z,5.57
2022-08-31T06:35:30.390Z,5.03
2022-08-31T06:38:26.923Z,5.60
2022-08-31T06:41:31.193Z,5.57
2022-08-31T06:44:24.901Z,4.88
2022-08-31T06:47:07.718Z,5.45
2022-08-31T06:49:39.615Z,4.90
2022-08-31T06:52:08.178Z,5.78
2022-08-31T06:54:38.168Z,5.47
2022-08-31T06:57:24.643Z,5.43
2022-08-31T07:00:13.214Z,5.43
2022-08-31T07:03:22.708Z,5.45
2022-08-31T07:05:56.184Z,5.22
2022-08-31T07:08:24.205Z,5.72
2022-08-31T07:10:52.773Z,5.60
2022-08-31T07:13:20.771Z,5.18
2022-08-31T07:15:50.232Z,5.25
2022-08-31T07:18:18.119Z,4.90
2022-08-31T07:20:46.984Z,4.43
2022-08-31T07:23:14.911Z,5.13
2022-08-31T07:25:52.564Z,4.60
2022-08-31T07:28:20.406Z,4.20
2022-08-31T07:30:50.071Z,4.30
2022-08-31T07:33:20.636Z,4.30
2022-08-31T07:35:54.258Z,3.92
2022-08-31T07:39:00.858Z,3.53
2022-08-31T07:41:49.828Z,3.42
2022-08-31T07:44:19.487Z,3.15
2022-08-31T07:46:48.150Z,2.97
2022-08-31T07:49:19.452Z,2.63
2022-08-31T07:51:59.983Z,2.65
2022-08-31T07:54:48.571Z,2.92
2022-08-31T07:57:42.476Z,3.15
2022-08-31T08:00:14.639Z,3.10
2022-08-31T08:02:46.343Z,3.25
2022-08-31T08:05:27.017Z,3.05
2022-08-31T08:08:15.820Z,3.13
2022-08-31T08:11:10.343Z,2.65
2022-08-31T08:13:54.291Z,2.30
2022-08-31T08:16:30.347Z,2.80
2022-08-31T08:19:19.059Z,2.88
2022-08-31T08:21:50.031Z,2.70
2022-08-31T08:24:24.212Z,2.50
2022-08-31T08:27:16.912Z,2.67
2022-08-31T08:29:52.788Z,2.60
2022-08-31T08:32:25.756Z,2.97
2022-08-31T08:34:53.943Z,2.65
2022-08-31T08:37:41.130Z,2.75
2022-08-31T08:40:16.967Z,2.63
2022-08-31T08:42:45.115Z,2.83
2022-08-31T08:45:13.419Z,2.38
2022-08-31T08:47:43.158Z,2.50
2022-08-31T08:50:11.213Z,2.60
2022-08-31T08:52:44.848Z,2.80
2022-08-31T08:55:16.747Z,2.47
2022-08-31T08:57:47.666Z,2.45
2022-08-31T09:00:19.210Z,2.53
2022-08-31T09:02:58.307Z,2.33
2022-08-31T09:06:09.620Z,2.22
2022-08-31T09:09:08.087Z,2.65
2022-08-31T09:11:50.316Z,2.42
2022-08-31T09:14:49.772Z,2.50
2022-08-31T09:17:35.724Z,3.05
2022-08-31T09:20:05.726Z,2.70
2022-08-31T09:22:47.242Z,2.72
2022-08-31T09:25:53.232Z,2.70
2022-08-31T09:28:48.425Z,3.00
2022-08-31T09:31:37.580Z,3.08
2022-08-31T09:34:13.957Z,2.92
2022-08-31T09:36:42.355Z,2.97
2022-08-31T09:39:19.379Z,2.88
2022-08-31T09:41:50.180Z,3.38
2022-08-31T09:44:31.397Z,3.17
2022-08-31T09:47:02.786Z,3.00
2022-08-31T09:49:32.320Z,3.35
2022-08-31T09:52:51.003Z,3.22
2022-08-31T09:55:25.305Z,3.22
2022-08-31T09:57:58.940Z,3.30
2022-08-31T10:00:41.077Z,3.50
2022-08-31T10:03:20.058Z,3.10
2022-08-31T10:05:50.476Z,3.30
2022-08-31T10:08:33.739Z,2.97
2022-08-31T10:11:11.250Z,3.50
2022-08-31T10:13:46.592Z,3.22
2022-08-31T10:16:25.462Z,3.20
2022-08-31T10:19:01.086Z,3.38
2022-08-31T10:21:40.503Z,3.30
2022-08-31T10:24:20.648Z,3.08
2022-08-31T10:26:53.379Z,3.03
2022-08-31T10:29:32.622Z,3.20
2022-08-31T10:32:09.102Z,3.00
2022-08-31T10:34:58.807Z,3.33
2022-08-31T10:37:36.602Z,3.15
2022-08-31T10:40:08.947Z,3.22
2022-08-31T10:42:40.238Z,3.05
2022-08-31T10:45:18.568Z,3.95
2022-08-31T10:47:49.982Z,2.67
2022-08-31T10:50:28.528Z,3.28
2022-08-31T10:53:11.325Z,3.00
2022-08-31T10:55:48.961Z,2.78
2022-08-31T10:58:27.561Z,3.00
2022-08-31T11:01:03.164Z,2.83
2022-08-31T11:03:56.678Z,2.55
2022-08-31T11:06:32.945Z,2.58
2022-08-31T11:09:07.016Z,2.30
2022-08-31T11:11:43.679Z,2.65
2022-08-31T11:14:48.320Z,2.85
2022-08-31T11:17:34.537Z,3.08
2022-08-31T11:20:39.745Z,2.60
2022-08-31T11:23:47.821Z,2.60
2022-08-31T11:26:45.046Z,2.60
2022-08-31T11:29:25.567Z,3.25
2022-08-31T11:31:55.061Z,2.65
2022-08-31T11:34:29.101Z,2.95
2022-08-31T11:37:00.953Z,3.35
2022-08-31T11:39:48.411Z,2.60
2022-08-31T11:42:49.657Z,2.80
2022-08-31T11:45:29.943Z,2.45
2022-08-31T11:47:59.336Z,2.85
2022-08-31T11:50:56.844Z,2.53
2022-08-31T11:53:34.968Z,2.55
2022-08-31T11:56:03.992Z,2.63
2022-08-31T11:58:34.624Z,2.63
2022-08-31T12:01:28.208Z,3.00
2022-08-31T12:04:03.256Z,2.60
2022-08-31T12:07:07.742Z,2.55
2022-08-31T12:10:24.072Z,2.60
2022-08-31T12:13:31.131Z,2.70
2022-08-31T12:16:20.897Z,2.50
2022-08-31T12:19:13.387Z,2.97
2022-08-31T12:22:06.847Z,2.55
2022-08-31T12:24:49.502Z,2.45
2022-08-31T12:27:31.998Z,2.80
2022-08-31T12:30:19.705Z,3.05
2022-08-31T12:32:57.850Z,2.67
2022-08-31T12:35:28.188Z,2.85
2022-08-31T12:38:00.981Z,2.53
2022-08-31T12:40:33.055Z,2.78
2022-08-31T12:43:09.449Z,2.88
2022-08-31T12:46:04.613Z,2.78
2022-08-31T12:48:47.764Z,2.90
2022-08-31T12:51:27.258Z,2.70
2022-08-31T12:54:17.397Z,2.72
2022-08-31T12:56:52.274Z,2.70
2022-08-31T12:59:59.425Z,2.42
2022-08-31T13:02:23.912Z,2.75
2022-08-31T13:04:52.250Z,2.33
2022-08-31T13:07:25.935Z,2.42
2022-08-31T13:10:04.470Z,2.28
2022-08-31T13:12:32.251Z,2.38
2022-08-31T13:14:59.987Z,2.42
2022-08-31T13:17:34.920Z,2.20
2022-08-31T13:20:03.664Z,2.67
2022-08-31T13:22:33.416Z,2.80
2022-08-31T13:25:16.352Z,2.90
2022-08-31T13:27:49.271Z,2.55
2022-08-31T13:30:21.162Z,2.55
2022-08-31T13:32:52.400Z,2.40
2022-08-31T13:35:22.861Z,2.60
2022-08-31T13:38:03.767Z,2.50
2022-08-31T13:40:35.398Z,2.60
2022-08-31T13:43:04.272Z,3.17
2022-08-31T13:45:34.846Z,2.80
2022-08-31T13:48:08.648Z,2.65
2022-08-31T13:50:52.324Z,2.53
2022-08-31T13:53:42.237Z,2.70
2022-08-31T13:56:53.195Z,2.72
2022-08-31T13:59:32.349Z,2.50
2022-08-31T14:02:02.552Z,2.40
2022-08-31T14:04:43.822Z,2.35
2022-08-31T14:07:21.250Z,2.40
2022-08-31T14:09:52.116Z,2.53
2022-08-31T14:12:36.163Z,2.47
2022-08-31T14:15:21.342Z,2.15
2022-08-31T14:21:04.048Z,2.47
2022-08-31T14:23:35.360Z,2.85
2022-08-31T14:26:06.405Z,2.38
2022-08-31T14:28:42.481Z,2.47
2022-08-31T14:31:22.827Z,2.50
2022-08-31T14:34:06.989Z,2.65
2022-08-31T14:36:52.495Z,2.20
2022-08-31T14:39:27.895Z,2.55
2022-08-31T14:41:58.282Z,3.58
2022-08-31T14:44:29.553Z,2.47
2022-08-31T14:46:57.828Z,2.50
2022-08-31T14:49:25.823Z,2.78
2022-08-31T14:51:59.839Z,2.47
2022-08-31T14:54:34.632Z,2.63
2022-08-31T14:57:05.698Z,2.63
2022-08-31T14:59:35.683Z,2.42
2022-08-31T15:02:03.694Z,2.30
2022-08-31T15:04:33.639Z,2.50
2022-08-31T15:07:06.858Z,2.92
2022-08-31T15:09:42.300Z,2.40
2022-08-31T15:12:14.760Z,2.30
2022-08-31T15:14:45.074Z,2.30
2022-08-31T15:17:19.018Z,2.58
2022-08-31T15:19:50.333Z,2.58
2022-08-31T15:22:19.884Z,2.25
2022-08-31T15:24:49.614Z,2.08
2022-08-31T15:27:18.535Z,2.40
2022-08-31T15:29:49.421Z,1.80
2022-08-31T15:32:18.691Z,2.10
2022-08-31T15:34:53.254Z,1.90
2022-08-31T15:37:22.609Z,2.20
2022-08-31T15:39:57.548Z,2.00
2022-08-31T15:42:29.603Z,1.88
2022-08-31T15:45:01.125Z,1.88
2022-08-31T15:47:49.230Z,2.10
2022-08-31T15:50:23.337Z,2.28
2022-08-31T15:52:56.314Z,2.05
2022-08-31T15:55:29.908Z,2.10
2022-08-31T15:57:59.523Z,2.35
2022-08-31T16:00:40.836Z,2.10
2022-08-31T16:03:09.007Z,2.60
2022-08-31T16:05:39.645Z,2.28
2022-08-31T16:08:11.430Z,2.10
2022-08-31T16:10:44.195Z,1.95
2022-08-31T16:13:12.632Z,2.42
2022-08-31T16:16:02.125Z,2.08
2022-08-31T16:18:31.254Z,2.17
2022-08-31T16:21:06.241Z,2.47
2022-08-31T16:23:35.806Z,2.38
2022-08-31T16:26:06.389Z,2.40
2022-08-31T16:28:36.185Z,2.50
2022-08-31T16:31:05.627Z,2.22
2022-08-31T16:33:33.565Z,2.47
2022-08-31T16:36:01.515Z,2.35
2022-08-31T16:38:30.971Z,2.40
2022-08-31T16:41:03.424Z,2.40
2022-08-31T16:43:31.650Z,2.30
2022-08-31T16:46:00.578Z,2.03
2022-08-31T16:48:46.189Z,2.10
2022-08-31T16:51:16.233Z,2.38
2022-08-31T16:53:47.578Z,2.20
2022-08-31T16:56:17.325Z,2.40
2022-08-31T16:58:52.382Z,2.25
2022-08-31T17:01:25.514Z,2.33
2022-08-31T17:03:55.931Z,2.60
2022-08-31T17:06:24.879Z,2.70
2022-08-31T17:08:57.032Z,2.35
2022-08-31T17:11:32.188Z,2.20
2022-08-31T17:14:01.921Z,2.05
2022-08-31T17:16:34.693Z,2.20
2022-08-31T17:19:07.609Z,1.95
2022-08-31T17:21:48.055Z,2.67
2022-08-31T17:24:18.437Z,2.03
2022-08-31T17:26:48.254Z,2.40
2022-08-31T17:29:16.200Z,2.53
2022-08-31T17:31:46.226Z,2.55
2022-08-31T17:34:17.229Z,2.45
2022-08-31T17:36:47.779Z,2.72
2022-08-31T17:39:17.680Z,2.40
2022-08-31T17:41:48.576Z,2.38
2022-08-31T17:44:29.467Z,2.60
2022-08-31T17:47:09.874Z,2.40
2022-08-31T17:49:46.612Z,2.38
2022-08-31T17:52:31.365Z,2.40
2022-08-31T17:55:07.553Z,2.83
2022-08-31T17:57:47.148Z,2.58
2022-08-31T18:00:19.085Z,2.70
2022-08-31T18:02:49.179Z,2.60
2022-08-31T18:05:17.669Z,2.40
2022-08-31T18:07:49.956Z,2.53
2022-08-31T18:10:19.186Z,2.53
2022-08-31T18:12:48.736Z,2.53
2022-08-31T18:15:19.059Z,2.80
2022-08-31T18:17:48.154Z,2.70
2022-08-31T18:20:19.193Z,2.58
2022-08-31T18:22:52.018Z,3.00
2022-08-31T18:25:20.955Z,2.63
2022-08-31T18:28:00.091Z,2.90
2022-08-31T18:30:41.297Z,2.33
2022-08-31T18:33:14.799Z,2.60
2022-08-31T18:36:02.818Z,2.40
2022-08-31T18:38:30.960Z,2.70
2022-08-31T18:41:13.177Z,2.40
2022-08-31T18:44:00.165Z,2.80
2022-08-31T18:46:28.803Z,2.58
2022-08-31T18:49:11.856Z,2.67
2022-08-31T18:51:46.743Z,2.67
2022-08-31T18:54:17.712Z,2.38
2022-08-31T18:56:45.887Z,2.83
2022-08-31T18:59:16.514Z,2.60
2022-08-31T19:01:48.084Z,2.80
2022-08-31T19:04:47.028Z,2.90
2022-08-31T19:07:19.954Z,3.13
2022-08-31T19:09:51.220Z,2.60
2022-08-31T19:12:20.183Z,2.50
2022-08-31T19:14:55.524Z,3.00
2022-08-31T19:17:26.982Z,2.70
2022-08-31T19:19:55.202Z,3.17
2022-08-31T19:22:23.698Z,2.80
2022-08-31T19:24:54.846Z,3.30
2022-08-31T19:27:23.788Z,2.88
2022-08-31T19:29:56.406Z,2.88
2022-08-31T19:32:24.762Z,2.97
2022-08-31T19:34:53.494Z,2.90
2022-08-31T19:37:21.527Z,2.97
2022-08-31T19:39:53.182Z,3.00
2022-08-31T19:42:40.136Z,3.13
2022-08-31T19:45:25.456Z,2.92
2022-08-31T19:48:26.703Z,2.75
2022-08-31T19:51:02.940Z,2.67
2022-08-31T19:53:33.159Z,2.67
2022-08-31T19:56:11.207Z,3.10
2022-08-31T19:58:49.477Z,2.97
2022-08-31T20:01:34.159Z,2.67
2022-08-31T20:04:04.241Z,2.78
2022-08-31T20:06:32.661Z,3.00
2022-08-31T20:09:00.940Z,2.83
2022-08-31T20:11:35.381Z,2.95
2022-08-31T20:14:05.097Z,2.92
2022-08-31T20:16:41.823Z,3.17
2022-08-31T20:19:14.102Z,3.00
2022-08-31T20:21:42.744Z,2.90
2022-08-31T20:24:14.773Z,2.90
2022-08-31T20:26:51.457Z,3.08
2022-08-31T20:29:23.728Z,3.17
2022-08-31T20:31:56.196Z,3.35
2022-08-31T20:34:29.079Z,3.30
2022-08-31T20:37:01.187Z,3.28
2022-08-31T20:39:31.920Z,3.00
2022-08-31T20:42:03.442Z,3.40
2022-08-31T20:44:37.293Z,3.30
2022-08-31T20:47:25.876Z,3.05
2022-08-31T20:49:56.123Z,2.75
2022-08-31T20:52:28.036Z,2.78
2022-08-31T20:55:01.989Z,3.08
2022-08-31T20:57:33.129Z,2.88
2022-08-31T21:00:02.928Z,2.33
2022-08-31T21:02:34.057Z,2.00
2022-08-31T21:05:20.727Z,2.10
2022-08-31T21:07:52.297Z,2.70
2022-08-31T21:10:33.719Z,2.22
2022-08-31T21:13:10.994Z,2.90
2022-08-31T21:15:44.810Z,2.72
2022-08-31T21:18:17.278Z,2.95
2022-08-31T21:20:45.653Z,3.05
2022-08-31T21:23:13.631Z,2.50
2022-08-31T21:25:45.196Z,2.58
2022-08-31T21:28:15.606Z,3.20
2022-08-31T21:30:45.150Z,2.78
2022-08-31T21:33:13.052Z,2.92
2022-08-31T21:35:42.637Z,2.90
2022-08-31T21:38:12.911Z,3.10
2022-08-31T21:40:48.084Z,3.00
2022-08-31T21:43:16.112Z,3.35
2022-08-31T21:45:44.324Z,3.03
2022-08-31T21:48:12.139Z,2.90
2022-08-31T21:50:40.028Z,3.22
2022-08-31T21:53:09.335Z,2.78
2022-08-31T21:55:38.802Z,2.50
2022-08-31T21:58:06.697Z,2.95
2022-08-31T22:00:35.032Z,2.63
2022-08-31T22:03:03.352Z,2.70
2022-08-31T22:05:32.920Z,2.83
2022-08-31T22:08:01.593Z,2.78
2022-08-31T22:10:32.536Z,2.47
2022-08-31T22:13:00.796Z,2.90
2022-08-31T22:15:29.085Z,2.67
2022-08-31T22:18:15.490Z,2.70
2022-08-31T22:20:45.504Z,2.70
2022-08-31T22:23:14.372Z,3.15
2022-08-31T22:25:43.644Z,3.17
2022-08-31T22:28:12.645Z,2.80
2022-08-31T22:30:40.543Z,2.70
2022-08-31T22:33:08.709Z,2.70
2022-08-31T22:35:39.996Z,3.03
2022-08-31T22:38:09.040Z,2.65
2022-08-31T22:40:39.496Z,2.78
2022-08-31T22:43:09.842Z,2.80
2022-08-31T22:45:48.141Z,2.60
2022-08-31T22:48:16.466Z,2.80
2022-08-31T22:50:44.383Z,2.90
2022-08-31T22:53:12.227Z,2.95
2022-08-31T22:55:41.113Z,3.30
2022-08-31T22:58:10.510Z,3.03
2022-08-31T23:00:38.418Z,2.83
2022-08-31T23:03:06.747Z,2.65
2022-08-31T23:05:37.958Z,3.05
2022-08-31T23:08:07.615Z,2.85
2022-08-31T23:10:35.920Z,2.92
2022-08-31T23:13:03.823Z,2.83
2022-08-31T23:15:33.495Z,3.25
2022-08-31T23:18:02.060Z,3.08
2022-08-31T23:20:31.055Z,2.45
2022-08-31T23:23:01.003Z,3.17
2022-08-31T23:25:29.118Z,2.47
2022-08-31T23:27:56.964Z,3.10
2022-08-31T23:30:25.643Z,2.80
2022-08-31T23:32:55.036Z,2.55
2022-08-31T23:35:24.500Z,3.20
2022-08-31T23:37:54.278Z,2.72
2022-08-31T23:40:22.288Z,2.60
2022-08-31T23:42:50.510Z,2.58
2022-08-31T23:45:18.522Z,2.63
2022-08-31T23:47:46.699Z,2.80
2022-08-31T23:50:16.531Z,2.63
2022-08-31T23:52:45.821Z,2.50
2022-08-31T23:55:13.774Z,2.90
2022-08-31T23:57:41.910Z,2.78
